createdAt,value
2022-11-10T00:02:02.900Z,2.80
2022-11-10T00:04:30.967Z,2.83
2022-11-10T00:06:58.300Z,3.50
2022-11-10T00:09:25.731Z,2.87
2022-11-10T00:11:53.377Z,2.93
2022-11-10T00:14:39.450Z,3.23
2022-11-10T00:17:06.932Z,3.13
2022-11-10T00:19:35.358Z,2.90
2022-11-10T00:22:03.472Z,3.07
2022-11-10T00:24:31.014Z,2.70
2022-11-10T00:26:58.342Z,2.77
2022-11-10T00:29:25.977Z,2.90
2022-11-10T00:31:53.609Z,2.83
2022-11-10T00:34:20.813Z,3.10
2022-11-10T00:36:48.168Z,2.53
2022-11-10T00:39:15.616Z,2.77
2022-11-10T00:41:43.690Z,2.70
2022-11-10T00:44:10.996Z,2.80
2022-11-10T00:46:40.194Z,2.70
2022-11-10T00:49:07.653Z,3.20
2022-11-10T00:51:34.855Z,2.80
2022-11-10T00:54:02.225Z,2.40
2022-11-10T00:56:29.542Z,2.57
2022-11-10T00:58:57.132Z,2.70
2022-11-10T01:01:26.129Z,2.60
2022-11-10T01:03:54.784Z,2.90
2022-11-10T01:06:22.849Z,2.90
2022-11-10T01:08:50.770Z,2.97
2022-11-10T01:11:23.105Z,2.33
2022-11-10T01:13:52.859Z,2.57
2022-11-10T01:16:27.466Z,2.67
2022-11-10T01:18:59.042Z,2.40
2022-11-10T01:22:04.122Z,2.50
2022-11-10T01:24:31.434Z,2.23
2022-11-10T01:26:58.731Z,2.70
2022-11-10T01:29:26.004Z,2.87
2022-11-10T01:31:53.734Z,3.90
2022-11-10T01:34:21.200Z,3.03
2022-11-10T01:36:48.638Z,2.50
2022-11-10T01:39:15.984Z,2.77
2022-11-10T01:41:43.470Z,2.77
2022-11-10T01:44:21.438Z,2.37
2022-11-10T01:46:48.770Z,2.67
2022-11-10T01:49:26.123Z,2.40
2022-11-10T01:52:12.095Z,2.43
2022-11-10T01:54:48.481Z,2.60
2022-11-10T01:57:17.060Z,2.50
2022-11-10T01:59:50.780Z,2.20
2022-11-10T02:02:29.547Z,2.30
2022-11-10T02:04:57.199Z,2.90
2022-11-10T02:07:26.270Z,2.37
2022-11-10T02:09:54.274Z,2.60
2022-11-10T02:12:37.367Z,2.70
2022-11-10T02:15:13.472Z,2.50
2022-11-10T02:17:42.648Z,2.60
2022-11-10T02:20:13.382Z,2.60
2022-11-10T02:22:41.056Z,2.60
2022-11-10T02:25:09.169Z,2.60
2022-11-10T02:27:37.053Z,2.53
2022-11-10T02:30:05.728Z,2.50
2022-11-10T02:32:33.175Z,2.67
2022-11-10T02:35:00.391Z,2.60
2022-11-10T02:37:27.652Z,2.57
2022-11-10T02:39:54.987Z,2.80
2022-11-10T02:42:22.335Z,3.17
2022-11-10T02:44:50.154Z,2.43
2022-11-10T02:47:17.694Z,2.30
2022-11-10T02:49:45.499Z,2.53
2022-11-10T02:52:12.678Z,2.60
2022-11-10T02:54:39.999Z,2.40
2022-11-10T02:57:07.248Z,2.53
2022-11-10T02:59:34.366Z,2.70
2022-11-10T03:02:04.315Z,2.70
2022-11-10T03:04:31.980Z,2.83
2022-11-10T03:06:59.314Z,2.40
2022-11-10T03:09:26.602Z,2.70
2022-11-10T03:11:53.975Z,3.00
2022-11-10T03:14:21.302Z,2.70
2022-11-10T03:16:48.433Z,2.47
2022-11-10T03:19:15.528Z,2.47
2022-11-10T03:21:43.150Z,2.70
2022-11-10T03:24:11.470Z,2.40
2022-11-10T03:26:38.735Z,2.90
2022-11-10T03:29:05.836Z,2.50
2022-11-10T03:31:33.268Z,2.53
2022-11-10T03:34:00.421Z,2.90
2022-11-10T03:36:27.628Z,3.17
2022-11-10T03:38:54.793Z,2.97
2022-11-10T03:41:22.054Z,2.50
2022-11-10T03:43:50.701Z,3.00
2022-11-10T03:46:18.567Z,2.50
2022-11-10T03:48:51.893Z,2.80
2022-11-10T03:51:21.022Z,2.67
2022-11-10T03:53:50.683Z,2.90
2022-11-10T03:56:17.878Z,2.60
2022-11-10T03:58:45.034Z,2.50
2022-11-10T04:01:12.334Z,2.60
2022-11-10T04:03:39.589Z,2.80
2022-11-10T04:06:25.323Z,2.83
2022-11-10T04:09:01.405Z,2.60
2022-11-10T04:11:49.093Z,2.87
2022-11-10T04:14:35.652Z,2.97
2022-11-10T04:17:03.625Z,2.90
2022-11-10T04:19:31.185Z,2.73
2022-11-10T04:22:00.977Z,2.43
2022-11-10T04:24:28.109Z,2.67
2022-11-10T04:26:55.174Z,2.50
2022-11-10T04:29:22.663Z,2.80
2022-11-10T04:31:49.768Z,2.43
2022-11-10T04:34:16.942Z,2.47
2022-11-10T04:36:46.291Z,2.67
2022-11-10T04:39:13.746Z,2.60
2022-11-10T04:41:40.931Z,2.60
2022-11-10T04:44:08.535Z,2.37
2022-11-10T04:46:39.563Z,2.87
2022-11-10T04:49:07.906Z,2.33
2022-11-10T04:51:38.592Z,2.43
2022-11-10T04:54:08.009Z,2.50
2022-11-10T04:56:35.399Z,2.50
2022-11-10T04:59:02.738Z,2.63
2022-11-10T05:01:30.084Z,2.40
2022-11-10T05:03:57.991Z,2.60
2022-11-10T05:06:25.823Z,2.70
2022-11-10T05:08:55.837Z,2.50
2022-11-10T05:11:23.040Z,2.70
2022-11-10T05:13:50.189Z,2.83
2022-11-10T05:16:17.980Z,2.40
2022-11-10T05:18:45.569Z,2.50
2022-11-10T05:21:12.839Z,2.77
2022-11-10T05:23:40.541Z,2.80
2022-11-10T05:26:17.645Z,2.73
2022-11-10T05:28:46.597Z,2.53
2022-11-10T05:31:14.351Z,2.33
2022-11-10T05:33:41.799Z,2.60
2022-11-10T05:36:10.850Z,2.47
2022-11-10T05:38:43.282Z,3.00
2022-11-10T05:41:11.519Z,3.00
2022-11-10T05:43:38.648Z,2.73
2022-11-10T05:46:05.930Z,2.77
2022-11-10T05:48:33.208Z,2.77
2022-11-10T05:51:00.491Z,2.57
2022-11-10T05:53:28.075Z,2.53
2022-11-10T05:55:55.331Z,2.90
2022-11-10T05:58:22.536Z,2.43
2022-11-10T06:00:49.999Z,2.50
2022-11-10T06:03:20.413Z,2.67
2022-11-10T06:05:48.169Z,2.73
2022-11-10T06:08:15.836Z,2.70
2022-11-10T06:10:43.134Z,2.80
2022-11-10T06:13:11.412Z,2.83
2022-11-10T06:15:38.675Z,3.40
2022-11-10T06:18:06.531Z,3.03
2022-11-10T06:20:33.996Z,3.13
2022-11-10T06:23:04.116Z,3.40
2022-11-10T06:25:35.410Z,3.23
2022-11-10T06:28:03.908Z,2.93
2022-11-10T06:30:35.226Z,2.90
2022-11-10T06:33:02.993Z,2.87
2022-11-10T06:35:31.603Z,3.00
2022-11-10T06:38:07.371Z,2.87
2022-11-10T06:40:35.402Z,2.87
2022-11-10T06:44:00.941Z,2.60
2022-11-10T06:46:28.394Z,4.03
2022-11-10T06:48:55.559Z,3.80
2022-11-10T06:51:22.834Z,2.60
2022-11-10T06:53:50.412Z,2.80
2022-11-10T06:57:35.018Z,3.00
2022-11-10T07:00:02.525Z,2.60
2022-11-10T07:02:29.804Z,2.93
2022-11-10T07:04:57.447Z,3.13
2022-11-10T07:07:24.696Z,2.60
2022-11-10T07:09:55.537Z,2.97
2022-11-10T07:12:23.409Z,2.67
2022-11-10T07:14:53.528Z,2.80
2022-11-10T07:17:25.174Z,2.67
2022-11-10T07:19:52.532Z,3.23
2022-11-10T07:22:20.140Z,2.90
2022-11-10T07:24:47.394Z,2.93
2022-11-10T07:27:14.889Z,2.77
2022-11-10T07:29:45.266Z,2.73
2022-11-10T07:32:13.135Z,3.10
2022-11-10T07:34:40.440Z,3.00
2022-11-10T07:37:07.875Z,2.70
2022-11-10T07:39:35.361Z,2.63
2022-11-10T07:42:02.729Z,2.50
2022-11-10T07:44:29.901Z,2.97
2022-11-10T07:46:57.213Z,2.57
2022-11-10T07:49:24.608Z,3.13
2022-11-10T07:51:54.341Z,3.07
2022-11-10T07:54:21.731Z,2.63
2022-11-10T07:56:49.037Z,2.80
2022-11-10T07:59:16.456Z,2.97
2022-11-10T08:01:43.816Z,2.57
2022-11-10T08:04:11.668Z,2.53
2022-11-10T08:06:41.540Z,2.93
2022-11-10T08:09:08.810Z,2.47
2022-11-10T08:11:36.040Z,2.80
2022-11-10T08:14:05.101Z,3.10
2022-11-10T08:16:32.454Z,2.80
2022-11-10T08:18:59.706Z,2.47
2022-11-10T08:21:27.004Z,2.80
2022-11-10T08:23:54.151Z,2.63
2022-11-10T08:26:21.430Z,2.67
2022-11-10T08:28:49.049Z,3.10
2022-11-10T08:31:16.478Z,3.23
2022-11-10T08:33:43.756Z,2.93
2022-11-10T08:36:10.921Z,2.93
2022-11-10T08:38:38.118Z,2.80
2022-11-10T08:41:05.618Z,3.17
2022-11-10T08:43:33.107Z,3.07
2022-11-10T08:46:01.993Z,2.83
2022-11-10T08:48:31.998Z,3.40
2022-11-10T08:51:03.950Z,2.70
2022-11-10T08:53:31.460Z,2.90
2022-11-10T08:55:59.876Z,2.80
2022-11-10T08:58:27.771Z,3.73
2022-11-10T09:00:59.620Z,3.00
2022-11-10T09:03:30.429Z,2.80
2022-11-10T09:05:58.980Z,2.80
2022-11-10T09:08:26.801Z,2.67
2022-11-10T09:10:54.713Z,2.90
2022-11-10T09:13:27.822Z,3.10
2022-11-10T09:16:02.083Z,2.90
2022-11-10T09:18:32.271Z,3.00
2022-11-10T09:21:00.106Z,3.20
2022-11-10T09:23:28.847Z,3.30
2022-11-10T09:25:57.840Z,3.07
2022-11-10T09:28:25.216Z,3.20
2022-11-10T09:30:54.665Z,3.67
2022-11-10T09:33:22.567Z,3.27
2022-11-10T09:35:51.413Z,2.90
2022-11-10T09:38:18.974Z,3.30
2022-11-10T09:41:03.111Z,3.00
2022-11-10T09:44:23.466Z,2.83
2022-11-10T09:47:05.056Z,3.20
2022-11-10T09:49:45.171Z,3.00
2022-11-10T09:52:14.180Z,3.17
2022-11-10T09:54:46.322Z,3.17
2022-11-10T09:57:25.479Z,2.80
2022-11-10T09:59:54.040Z,2.90
2022-11-10T10:02:37.064Z,2.40
2022-11-10T10:05:53.913Z,3.00
2022-11-10T10:09:12.099Z,3.17
2022-11-10T10:12:37.038Z,4.03
2022-11-10T10:15:22.229Z,2.80
2022-11-10T10:18:07.864Z,3.00
2022-11-10T10:21:27.901Z,3.00
2022-11-10T10:24:10.429Z,2.87
2022-11-10T10:26:51.125Z,2.80
2022-11-10T10:29:37.006Z,2.80
2022-11-10T10:32:10.280Z,2.50
2022-11-10T10:34:37.998Z,2.40
2022-11-10T10:37:05.616Z,3.40
2022-11-10T10:39:46.747Z,2.73
2022-11-10T10:42:33.547Z,2.73
2022-11-10T10:45:27.134Z,2.70
2022-11-10T10:47:57.341Z,2.70
2022-11-10T10:50:36.765Z,2.87
2022-11-10T10:53:20.483Z,2.80
2022-11-10T10:56:05.048Z,2.90
2022-11-10T10:58:48.323Z,3.13
2022-11-10T11:01:18.686Z,2.60
2022-11-10T11:03:50.182Z,2.57
2022-11-10T11:06:18.290Z,2.10
2022-11-10T11:08:59.672Z,2.50
2022-11-10T11:11:34.490Z,2.40
2022-11-10T11:14:29.108Z,1.97
2022-11-10T11:17:03.770Z,2.10
2022-11-10T11:19:37.801Z,2.67
2022-11-10T11:22:57.242Z,2.40
2022-11-10T11:25:38.477Z,2.30
2022-11-10T11:28:52.055Z,2.60
2022-11-10T11:32:34.771Z,2.30
2022-11-10T11:35:32.019Z,2.37
2022-11-10T11:38:24.800Z,2.20
2022-11-10T11:41:16.713Z,2.77
2022-11-10T11:44:05.454Z,2.40
2022-11-10T11:46:51.151Z,2.30
2022-11-10T11:49:56.443Z,1.80
2022-11-10T11:52:58.882Z,2.50
2022-11-10T11:55:54.998Z,2.10
2022-11-10T11:58:54.137Z,2.50
2022-11-10T12:02:05.250Z,2.03
2022-11-10T12:05:16.001Z,2.00
2022-11-10T12:08:08.866Z,2.13
2022-11-10T12:11:04.800Z,2.00
2022-11-10T12:14:00.587Z,2.03
2022-11-10T12:16:34.149Z,1.73
2022-11-10T12:19:48.651Z,1.97
2022-11-10T12:22:53.050Z,2.17
2022-11-10T12:25:48.445Z,2.03
2022-11-10T12:28:34.665Z,1.90
2022-11-10T12:31:10.406Z,2.00
2022-11-10T12:33:45.889Z,1.60
2022-11-10T12:36:17.881Z,1.87
2022-11-10T12:39:36.695Z,1.80
2022-11-10T12:42:08.239Z,1.70
2022-11-10T12:44:57.647Z,1.50
2022-11-10T12:47:31.719Z,1.73
2022-11-10T12:50:26.607Z,1.63
2022-11-10T12:53:12.691Z,1.60
2022-11-10T12:55:58.154Z,1.57
2022-11-10T12:58:27.144Z,1.90
2022-11-10T13:01:12.932Z,1.50
2022-11-10T13:03:56.096Z,1.70
2022-11-10T13:06:36.035Z,1.80
2022-11-10T13:09:04.208Z,1.87
2022-11-10T13:11:34.316Z,1.90
2022-11-10T13:14:24.013Z,1.70
2022-11-10T13:16:54.533Z,1.70
2022-11-10T13:19:21.632Z,1.70
2022-11-10T13:21:51.853Z,1.53
2022-11-10T13:24:30.839Z,2.03
2022-11-10T13:27:33.154Z,1.80
2022-11-10T13:30:01.282Z,1.60
2022-11-10T13:32:34.341Z,1.33
2022-11-10T13:35:29.411Z,1.43
2022-11-10T13:38:00.027Z,2.00
2022-11-10T13:40:33.146Z,1.60
2022-11-10T13:43:00.333Z,1.80
2022-11-10T13:45:37.229Z,1.40
2022-11-10T13:48:13.290Z,1.93
2022-11-10T13:50:52.692Z,1.70
2022-11-10T13:53:34.832Z,1.83
2022-11-10T13:56:23.228Z,1.83
2022-11-10T13:58:50.599Z,1.87
2022-11-10T14:01:17.835Z,1.90
2022-11-10T14:03:48.243Z,1.63
2022-11-10T14:06:47.104Z,1.93
2022-11-10T14:09:39.983Z,1.77
2022-11-10T14:12:30.708Z,1.60
2022-11-10T14:15:19.204Z,1.93
2022-11-10T14:17:56.018Z,2.10
2022-11-10T14:20:44.397Z,2.20
2022-11-10T14:23:33.816Z,1.67
2022-11-10T14:26:06.930Z,1.87
2022-11-10T14:28:38.152Z,2.10
2022-11-10T14:31:06.256Z,1.80
2022-11-10T14:33:33.598Z,1.90
2022-11-10T14:36:09.210Z,2.07
2022-11-10T14:38:44.802Z,1.90
2022-11-10T14:41:22.659Z,1.90
2022-11-10T14:44:19.906Z,1.67
2022-11-10T14:46:47.131Z,2.20
2022-11-10T14:49:20.884Z,2.10
2022-11-10T14:51:50.379Z,1.70
2022-11-10T14:54:30.550Z,1.80
2022-11-10T14:56:58.165Z,2.17
2022-11-10T14:59:26.256Z,1.93
2022-11-10T15:02:00.652Z,1.93
2022-11-10T15:04:33.127Z,1.70
2022-11-10T15:07:01.172Z,1.97
2022-11-10T15:09:32.737Z,2.00
2022-11-10T15:12:13.385Z,2.10
2022-11-10T15:14:45.769Z,1.90
2022-11-10T15:17:16.113Z,1.77
2022-11-10T15:19:46.362Z,2.00
2022-11-10T15:22:18.069Z,1.60
2022-11-10T15:24:48.344Z,1.70
2022-11-10T15:27:31.824Z,1.80
2022-11-10T15:30:02.603Z,1.97
2022-11-10T15:32:43.793Z,1.70
2022-11-10T15:35:24.562Z,1.70
2022-11-10T15:38:28.970Z,2.17
2022-11-10T15:41:27.310Z,2.37
2022-11-10T15:43:54.856Z,1.90
2022-11-10T15:46:26.843Z,2.03
2022-11-10T15:48:54.062Z,2.17
2022-11-10T15:51:26.126Z,2.13
2022-11-10T15:53:54.671Z,2.07
2022-11-10T15:56:25.004Z,2.30
2022-11-10T15:59:02.058Z,2.00
2022-11-10T16:01:31.617Z,2.00
2022-11-10T16:03:59.469Z,1.90
2022-11-10T16:06:27.647Z,2.10
2022-11-10T16:08:54.930Z,2.33
2022-11-10T16:11:23.757Z,2.53
2022-11-10T16:13:53.164Z,2.00
2022-11-10T16:16:20.775Z,2.10
2022-11-10T16:18:47.949Z,2.70
2022-11-10T16:21:21.709Z,2.87
2022-11-10T16:23:49.633Z,2.67
2022-11-10T16:26:23.832Z,2.67
2022-11-10T16:28:51.343Z,3.07
2022-11-10T16:31:24.445Z,2.83
2022-11-10T16:33:53.252Z,2.60
2022-11-10T16:36:36.960Z,2.33
2022-11-10T16:39:15.038Z,2.30
2022-11-10T16:41:42.848Z,2.30
2022-11-10T16:44:15.752Z,2.03
2022-11-10T16:46:47.787Z,2.20
2022-11-10T16:49:35.473Z,2.53
2022-11-10T16:52:15.482Z,2.13
2022-11-10T16:54:43.133Z,2.10
2022-11-10T16:57:17.463Z,2.40
2022-11-10T16:59:46.140Z,2.27
2022-11-10T17:02:33.768Z,2.20
2022-11-10T17:05:01.202Z,2.20
2022-11-10T17:07:29.567Z,2.40
2022-11-10T17:09:59.109Z,2.00
2022-11-10T17:12:26.471Z,2.47
2022-11-10T17:14:53.869Z,2.70
2022-11-10T17:17:21.695Z,3.00
2022-11-10T17:19:51.645Z,2.63
2022-11-10T17:22:21.934Z,2.27
2022-11-10T17:24:56.712Z,2.67
2022-11-10T17:27:43.361Z,2.27
2022-11-10T17:30:13.340Z,2.33
2022-11-10T17:33:03.669Z,2.33
2022-11-10T17:35:28.434Z,2.40
2022-11-10T17:37:59.810Z,2.50
2022-11-10T17:40:29.544Z,2.23
2022-11-10T17:42:59.838Z,2.37
2022-11-10T17:45:35.240Z,2.30
2022-11-10T17:48:02.702Z,2.33
2022-11-10T17:50:32.661Z,2.30
2022-11-10T17:53:25.700Z,2.40
2022-11-10T17:55:53.852Z,2.33
2022-11-10T17:58:21.374Z,2.67
2022-11-10T18:00:49.190Z,2.50
2022-11-10T18:03:22.897Z,2.47
2022-11-10T18:05:50.650Z,2.57
2022-11-10T18:08:18.534Z,2.80
2022-11-10T18:10:53.039Z,2.53
2022-11-10T18:13:39.540Z,2.33
2022-11-10T18:16:11.249Z,2.37
2022-11-10T18:18:39.541Z,2.70
2022-11-10T18:21:07.836Z,2.63
2022-11-10T18:23:37.037Z,3.00
2022-11-10T18:26:09.294Z,2.90
2022-11-10T18:28:37.021Z,3.17
2022-11-10T18:31:13.754Z,2.97
2022-11-10T18:33:41.054Z,3.50
2022-11-10T18:36:09.133Z,3.33
2022-11-10T18:38:36.326Z,3.47
2022-11-10T18:41:23.999Z,3.30
2022-11-10T18:43:51.831Z,3.10
2022-11-10T18:46:19.035Z,3.40
2022-11-10T18:48:47.205Z,3.00
2022-11-10T18:51:15.896Z,3.07
2022-11-10T18:53:45.351Z,2.60
2022-11-10T18:56:14.558Z,3.50
2022-11-10T18:58:42.597Z,2.90
2022-11-10T19:01:11.903Z,2.40
2022-11-10T19:03:39.145Z,2.97
2022-11-10T19:06:06.971Z,3.30
2022-11-10T19:08:34.311Z,3.03
2022-11-10T19:11:05.244Z,3.10
2022-11-10T19:13:32.574Z,3.00
2022-11-10T19:16:06.609Z,3.33
2022-11-10T19:18:35.434Z,3.20
2022-11-10T19:21:16.197Z,3.73
2022-11-10T19:23:44.328Z,3.40
2022-11-10T19:26:22.737Z,3.70
2022-11-10T19:28:51.032Z,3.67
2022-11-10T19:31:19.757Z,3.60
2022-11-10T19:33:47.366Z,3.37
2022-11-10T19:36:22.336Z,3.20
2022-11-10T19:38:49.740Z,3.60
2022-11-10T19:41:22.344Z,3.73
2022-11-10T19:43:49.701Z,3.70
2022-11-10T19:46:24.560Z,3.07
2022-11-10T19:48:52.121Z,3.40
2022-11-10T19:51:20.399Z,3.37
2022-11-10T19:53:54.938Z,3.20
2022-11-10T19:56:26.256Z,3.50
2022-11-10T19:58:56.548Z,3.50
2022-11-10T20:01:24.530Z,3.33
2022-11-10T20:03:52.189Z,3.27
2022-11-10T20:06:23.232Z,3.20
2022-11-10T20:08:51.113Z,3.77
2022-11-10T20:11:23.468Z,3.20
2022-11-10T20:13:55.172Z,3.40
2022-11-10T20:16:23.868Z,3.70
2022-11-10T20:18:51.552Z,3.70
2022-11-10T20:21:24.132Z,3.43
2022-11-10T20:23:56.911Z,3.20
2022-11-10T20:26:25.751Z,3.83
2022-11-10T20:28:53.258Z,3.60
2022-11-10T20:31:26.412Z,3.63
2022-11-10T20:34:01.442Z,3.30
2022-11-10T20:36:31.202Z,3.57
2022-11-10T20:39:00.721Z,3.30
2022-11-10T20:41:31.368Z,3.50
2022-11-10T20:44:01.063Z,3.33
2022-11-10T20:49:15.914Z,3.30
2022-11-10T20:51:43.765Z,3.37
2022-11-10T20:54:11.222Z,3.70
2022-11-10T20:56:38.609Z,3.60
2022-11-10T20:59:05.894Z,3.07
2022-11-10T21:01:33.825Z,3.73
2022-11-10T21:04:03.382Z,3.43
2022-11-10T21:06:30.772Z,3.30
2022-11-10T21:08:58.106Z,3.40
2022-11-10T21:11:44.252Z,3.60
2022-11-10T21:14:11.768Z,3.20
2022-11-10T21:16:42.186Z,3.60
2022-11-10T21:19:09.636Z,3.40
2022-11-10T21:21:37.614Z,3.83
2022-11-10T21:24:07.576Z,3.27
2022-11-10T21:26:36.511Z,3.40
2022-11-10T21:29:05.241Z,3.70
2022-11-10T21:31:32.829Z,3.03
2022-11-10T21:34:01.203Z,3.40
2022-11-10T21:36:29.837Z,3.23
2022-11-10T21:38:59.121Z,3.20
2022-11-10T21:41:28.370Z,3.43
2022-11-10T21:43:55.990Z,3.23
2022-11-10T21:46:27.042Z,3.60
2022-11-10T21:48:57.475Z,3.03
2022-11-10T21:51:25.609Z,3.23
2022-11-10T21:53:53.143Z,3.63
2022-11-10T21:56:20.775Z,3.50
2022-11-10T21:58:48.401Z,3.60
2022-11-10T22:01:19.652Z,3.80
2022-11-10T22:03:47.979Z,3.47
2022-11-10T22:06:18.575Z,3.23
2022-11-10T22:08:47.962Z,3.93
2022-11-10T22:11:38.160Z,3.10
2022-11-10T22:14:33.314Z,3.70
2022-11-10T22:17:19.099Z,4.20
2022-11-10T22:19:48.840Z,3.80
2022-11-10T22:22:19.249Z,3.43
2022-11-10T22:24:46.922Z,3.40
2022-11-10T22:27:14.275Z,3.30
2022-11-10T22:29:41.536Z,3.43
2022-11-10T22:32:09.185Z,3.40
2022-11-10T22:34:36.743Z,2.73
2022-11-10T22:37:04.092Z,2.70
2022-11-10T22:39:50.490Z,2.90
2022-11-10T22:42:36.567Z,2.90
2022-11-10T22:45:04.213Z,2.73
2022-11-10T22:47:51.976Z,2.70
2022-11-10T22:50:19.419Z,2.53
2022-11-10T22:52:50.012Z,2.70
2022-11-10T22:55:17.686Z,2.67
2022-11-10T22:57:45.183Z,2.97
2022-11-10T23:00:13.769Z,2.90
2022-11-10T23:02:41.174Z,3.00
2022-11-10T23:05:54.950Z,3.13
2022-11-10T23:08:23.720Z,2.77
2022-11-10T23:11:01.397Z,2.70
2022-11-10T23:13:29.363Z,2.90
2022-11-10T23:16:35.260Z,3.57
2022-11-10T23:19:03.890Z,3.00
2022-11-10T23:21:32.023Z,2.63
2022-11-10T23:23:59.331Z,2.90
2022-11-10T23:26:30.343Z,2.70
2022-11-10T23:28:57.885Z,2.87
2022-11-10T23:31:28.735Z,2.90
2022-11-10T23:33:58.091Z,2.73
2022-11-10T23:37:23.360Z,2.50
2022-11-10T23:39:50.810Z,3.37
2022-11-10T23:42:18.566Z,3.40
2022-11-10T23:44:46.062Z,3.00
2022-11-10T23:47:13.498Z,3.03
2022-11-10T23:49:40.777Z,3.03
2022-11-10T23:52:08.343Z,3.57
2022-11-10T23:54:35.747Z,2.87
2022-11-10T23:57:03.434Z,3.03
2022-11-10T23:59:30.888Z,3.30
